createdAt,value
2022-08-31T00:03:28.542Z,6.97
2022-08-31T00:08:26.570Z,7.13
2022-08-31T00:13:24.564Z,7.10
2022-08-31T00:18:22.707Z,7.93
2022-08-31T00:23:19.773Z,7.75
2022-08-31T00:28:17.646Z,7.50
2022-08-31T00:33:15.062Z,7.15
2022-08-31T00:38:14.422Z,6.97
2022-08-31T00:43:28.550Z,7.25
2022-08-31T00:48:26.533Z,7.18
2022-08-31T00:53:24.783Z,7.70
2022-08-31T00:58:22.192Z,6.82
2022-08-31T01:03:21.201Z,7.68
2022-08-31T01:08:18.272Z,8.48
2022-08-31T01:13:24.781Z,7.47
2022-08-31T01:18:23.877Z,7.32
2022-08-31T01:23:26.048Z,7.07
2022-08-31T01:28:23.136Z,7.22
2022-08-31T01:33:21.642Z,8.75
2022-08-31T01:38:18.471Z,8.60
2022-08-31T01:43:16.550Z,8.57
2022-08-31T01:48:14.356Z,8.98
2022-08-31T01:53:12.265Z,8.05
2022-08-31T01:58:09.502Z,8.27
2022-08-31T02:03:25.438Z,8.88
2022-08-31T02:08:22.362Z,7.97
2022-08-31T02:13:20.929Z,7.53
2022-08-31T02:18:20.270Z,8.27
2022-08-31T02:23:20.581Z,8.00
2022-08-31T02:28:18.411Z,8.23
2022-08-31T02:33:15.354Z,8.27
2022-08-31T02:38:12.317Z,9.02
2022-08-31T02:43:12.862Z,10.07
2022-08-31T02:48:22.158Z,8.65
2022-08-31T02:53:23.188Z,9.75
2022-08-31T02:58:24.072Z,8.50
2022-08-31T03:03:22.205Z,9.02
2022-08-31T03:08:19.401Z,8.98
2022-08-31T03:13:20.453Z,9.45
2022-08-31T03:18:17.666Z,8.98
2022-08-31T03:23:14.841Z,9.48
2022-08-31T03:28:12.082Z,9.20
2022-08-31T03:33:13.599Z,11.07
2022-08-31T03:38:14.430Z,11.35
2022-08-31T03:43:12.712Z,10.02
2022-08-31T03:48:12.911Z,9.98
2022-08-31T03:53:12.550Z,11.32
2022-08-31T03:58:10.639Z,11.15
2022-08-31T04:03:07.898Z,11.05
2022-08-31T04:08:28.584Z,11.07
2022-08-31T04:13:58.054Z,11.05
2022-08-31T04:19:16.248Z,11.77
2022-08-31T04:24:26.553Z,10.63
2022-08-31T04:29:38.530Z,11.18
2022-08-31T04:34:40.985Z,11.38
2022-08-31T04:39:50.698Z,10.35
2022-08-31T04:44:48.218Z,11.00
2022-08-31T04:49:49.610Z,12.82
2022-08-31T04:55:43.357Z,11.95
2022-08-31T05:00:57.655Z,12.52
2022-08-31T05:06:18.364Z,12.20
2022-08-31T05:11:21.795Z,12.23
2022-08-31T05:16:31.498Z,13.05
2022-08-31T05:21:31.290Z,12.65
2022-08-31T05:26:31.219Z,10.70
2022-08-31T05:31:29.450Z,11.43
2022-08-31T05:36:32.393Z,11.27
2022-08-31T05:41:33.492Z,11.95
2022-08-31T05:46:34.408Z,10.73
2022-08-31T05:51:40.151Z,10.63
2022-08-31T05:56:46.505Z,11.32
2022-08-31T06:01:52.991Z,12.00
2022-08-31T06:07:04.923Z,10.65
2022-08-31T06:12:16.996Z,10.50
2022-08-31T06:17:31.715Z,10.13
2022-08-31T06:22:37.909Z,10.35
2022-08-31T06:28:25.330Z,8.48
2022-08-31T06:33:24.344Z,9.90
2022-08-31T06:38:45.016Z,9.85
2022-08-31T06:44:05.090Z,10.27
2022-08-31T06:49:15.587Z,10.70
2022-08-31T06:54:29.319Z,9.52
2022-08-31T06:59:45.402Z,9.27
2022-08-31T07:05:24.338Z,11.88
2022-08-31T07:10:24.874Z,9.65
2022-08-31T07:15:24.562Z,9.00
2022-08-31T07:20:34.353Z,10.93
2022-08-31T07:25:31.809Z,10.30
2022-08-31T07:30:33.324Z,9.75
2022-08-31T07:35:35.051Z,9.60
2022-08-31T07:41:08.069Z,9.23
2022-08-31T07:46:16.365Z,9.63
2022-08-31T07:51:24.249Z,9.25
2022-08-31T07:56:46.203Z,9.77
2022-08-31T08:01:47.860Z,9.88
2022-08-31T08:06:49.171Z,9.00
2022-08-31T08:12:18.617Z,9.32
2022-08-31T08:17:58.111Z,8.55
2022-08-31T08:23:00.241Z,8.10
2022-08-31T08:28:39.892Z,8.50
2022-08-31T08:33:39.574Z,9.65
2022-08-31T08:38:43.035Z,7.68
2022-08-31T08:43:47.980Z,9.93
2022-08-31T08:48:55.528Z,9.02
2022-08-31T08:54:02.074Z,8.68
2022-08-31T08:59:07.322Z,10.05
2022-08-31T09:04:20.650Z,10.07
2022-08-31T09:10:27.883Z,8.25
2022-08-31T09:15:36.254Z,8.07
2022-08-31T09:20:35.337Z,8.18
2022-08-31T09:26:17.648Z,7.70
2022-08-31T09:31:37.010Z,8.00
2022-08-31T09:36:40.256Z,8.88
2022-08-31T09:41:38.027Z,9.82
2022-08-31T09:46:47.142Z,7.40
2022-08-31T09:53:06.417Z,8.00
2022-08-31T09:58:13.785Z,7.83
2022-08-31T10:04:02.157Z,8.10
2022-08-31T10:09:04.090Z,8.05
2022-08-31T10:14:29.513Z,7.53
2022-08-31T10:19:39.007Z,8.13
2022-08-31T10:24:45.735Z,7.78
2022-08-31T10:29:54.330Z,7.18
2022-08-31T10:35:05.216Z,8.45
2022-08-31T10:40:20.295Z,7.22
2022-08-31T10:45:25.614Z,7.90
2022-08-31T10:50:30.106Z,8.15
2022-08-31T10:55:36.834Z,7.80
2022-08-31T11:01:03.148Z,7.95
2022-08-31T11:06:05.776Z,7.30
2022-08-31T11:11:15.663Z,8.82
2022-08-31T11:16:33.831Z,7.03
2022-08-31T11:22:11.960Z,7.90
2022-08-31T11:27:25.870Z,7.50
2022-08-31T11:38:02.006Z,7.15
2022-08-31T11:43:00.767Z,7.90
2022-08-31T11:48:01.046Z,6.80
2022-08-31T11:53:19.900Z,6.97
2022-08-31T11:58:54.167Z,7.97
2022-08-31T12:03:55.109Z,7.18
2022-08-31T12:08:59.696Z,6.93
2022-08-31T12:14:01.528Z,7.32
2022-08-31T12:19:42.462Z,7.53
2022-08-31T12:24:51.990Z,7.05
2022-08-31T12:29:50.672Z,8.02
2022-08-31T12:35:05.360Z,6.63
2022-08-31T12:40:30.744Z,6.60
2022-08-31T12:45:56.522Z,5.80
2022-08-31T12:51:09.773Z,6.85
2022-08-31T12:56:31.111Z,7.05
2022-08-31T13:01:49.345Z,5.90
2022-08-31T13:06:48.340Z,6.43
2022-08-31T13:11:54.484Z,6.35
2022-08-31T13:16:53.642Z,5.65
2022-08-31T13:21:54.520Z,5.28
2022-08-31T13:27:04.269Z,5.80
2022-08-31T13:32:01.485Z,6.82
2022-08-31T13:36:59.226Z,6.97
2022-08-31T13:42:05.243Z,5.22
2022-08-31T13:47:04.840Z,6.18
2022-08-31T13:52:04.531Z,6.28
2022-08-31T13:57:24.377Z,5.68
2022-08-31T14:02:36.890Z,7.20
2022-08-31T14:07:54.243Z,5.90
2022-08-31T14:12:55.305Z,14.40
2022-08-31T14:18:27.145Z,6.78
2022-08-31T14:23:32.282Z,12.90
2022-08-31T14:28:40.337Z,12.90
2022-08-31T14:33:37.636Z,6.10
2022-08-31T14:39:14.787Z,5.95
2022-08-31T14:44:24.549Z,6.25
2022-08-31T14:49:24.833Z,6.22
2022-08-31T14:54:24.311Z,6.85
2022-08-31T14:59:24.113Z,6.25
2022-08-31T15:04:42.829Z,6.10
2022-08-31T15:10:01.263Z,5.15
2022-08-31T15:20:30.070Z,7.03
2022-08-31T15:25:36.264Z,5.70
2022-08-31T15:30:47.271Z,5.55
2022-08-31T15:35:49.761Z,5.95
2022-08-31T15:40:48.626Z,5.15
2022-08-31T15:46:13.675Z,6.28
2022-08-31T15:51:23.149Z,5.82
2022-08-31T15:56:22.632Z,5.97
2022-08-31T16:01:22.398Z,6.00
2022-08-31T16:06:38.260Z,6.18
2022-08-31T16:11:37.394Z,5.63
2022-08-31T16:16:36.349Z,5.35
2022-08-31T16:21:40.560Z,5.55
2022-08-31T16:26:48.160Z,6.03
2022-08-31T16:31:46.002Z,6.13
2022-08-31T16:36:43.459Z,5.78
2022-08-31T16:41:49.016Z,6.50
2022-08-31T16:46:46.107Z,6.40
2022-08-31T16:51:48.029Z,6.20
2022-08-31T16:57:13.124Z,6.43
2022-08-31T17:02:12.420Z,6.82
2022-08-31T17:07:11.370Z,6.05
2022-08-31T17:12:15.402Z,6.30
2022-08-31T17:17:15.106Z,7.30
2022-08-31T17:22:23.490Z,7.55
2022-08-31T17:27:36.405Z,7.85
2022-08-31T17:32:45.066Z,7.03
2022-08-31T17:37:42.978Z,9.63
2022-08-31T17:42:41.502Z,6.70
2022-08-31T17:47:38.718Z,6.30
2022-08-31T17:52:49.732Z,8.27
2022-08-31T17:57:50.583Z,7.90
2022-08-31T18:02:59.020Z,6.85
2022-08-31T18:07:56.003Z,7.30
2022-08-31T18:12:58.615Z,6.30
2022-08-31T18:17:58.691Z,6.95
2022-08-31T18:22:58.274Z,7.13
2022-08-31T18:27:56.273Z,6.82
2022-08-31T18:32:53.467Z,6.70
2022-08-31T18:37:50.744Z,6.45
2022-08-31T18:43:05.961Z,7.35
2022-08-31T18:53:27.616Z,6.78
2022-08-31T18:58:28.195Z,6.35
2022-08-31T19:03:27.069Z,6.97
2022-08-31T19:08:25.125Z,6.18
2022-08-31T19:13:24.213Z,6.88
2022-08-31T19:18:21.344Z,7.00
2022-08-31T19:23:20.351Z,7.05
2022-08-31T19:28:18.886Z,6.50
2022-08-31T19:33:17.072Z,6.97
2022-08-31T19:38:14.365Z,6.70
2022-08-31T19:48:31.502Z,5.70
2022-08-31T19:53:28.757Z,6.13
2022-08-31T19:58:26.721Z,6.28
2022-08-31T20:03:26.907Z,5.55
2022-08-31T20:08:24.107Z,6.55
2022-08-31T20:13:27.918Z,10.95
2022-08-31T20:18:27.513Z,5.63
2022-08-31T20:23:24.869Z,11.23
2022-08-31T20:28:25.540Z,5.40
2022-08-31T20:33:35.735Z,5.47
2022-08-31T20:38:40.658Z,5.80
2022-08-31T20:43:40.890Z,7.07
2022-08-31T20:48:56.435Z,6.70
2022-08-31T20:53:53.556Z,6.05
2022-08-31T20:58:50.979Z,5.25
2022-08-31T21:03:49.086Z,5.53
2022-08-31T21:08:46.000Z,6.30
2022-08-31T21:13:44.035Z,5.68
2022-08-31T21:18:40.919Z,5.20
2022-08-31T21:23:38.996Z,5.75
2022-08-31T21:28:37.702Z,5.45
2022-08-31T21:33:34.671Z,6.60
2022-08-31T21:38:32.423Z,7.63
2022-08-31T21:43:30.482Z,7.55
2022-08-31T21:48:28.763Z,7.53
2022-08-31T21:53:26.594Z,8.90
2022-08-31T21:58:23.507Z,8.93
2022-08-31T22:03:22.005Z,9.57
2022-08-31T22:08:19.436Z,9.70
2022-08-31T22:13:16.564Z,8.05
2022-08-31T22:23:31.357Z,8.68
2022-08-31T22:28:28.567Z,7.72
2022-08-31T22:33:28.815Z,7.65
2022-08-31T22:38:26.173Z,8.68
2022-08-31T22:43:25.197Z,8.50
2022-08-31T22:48:22.563Z,9.35
2022-08-31T22:53:19.805Z,8.50
2022-08-31T22:58:17.101Z,8.18
2022-08-31T23:03:15.257Z,7.78
2022-08-31T23:08:14.477Z,7.47
2022-08-31T23:13:13.222Z,6.78
2022-08-31T23:18:10.595Z,6.25
2022-08-31T23:23:09.849Z,6.25
2022-08-31T23:28:08.350Z,7.75
2022-08-31T23:33:05.512Z,6.43
2022-08-31T23:38:02.677Z,7.70
2022-08-31T23:43:00.479Z,7.70
2022-08-31T23:47:57.813Z,7.28
2022-08-31T23:52:54.941Z,7.57
2022-08-31T23:57:54.352Z,8.18
